sensor_id;sensor_type;location;lat;lon;timestamp;temperature;humidity
58517;DHT22;44308;50.810;0.284;2023-05-07T00:00:23;15.50;99.90
58517;DHT22;44308;50.810;0.284;2023-05-07T00:02:49;15.50;99.90
58517;DHT22;44308;50.810;0.284;2023-05-07T00:05:15;15.50;99.90
58517;DHT22;44308;50.810;0.284;2023-05-07T00:07:41;15.50;99.90
58517;DHT22;44308;50.810;0.284;2023-05-07T00:10:07;15.50;99.90
58517;DHT22;44308;50.810;0.284;2023-05-07T00:12:35;15.50;99.90
58517;DHT22;44308;50.810;0.284;2023-05-07T00:15:02;15.50;99.90
58517;DHT22;44308;50.810;0.284;2023-05-07T00:17:29;15.40;99.90
58517;DHT22;44308;50.810;0.284;2023-05-07T00:19:55;15.50;99.90
58517;DHT22;44308;50.810;0.284;2023-05-07T00:22:20;15.50;99.90
58517;DHT22;44308;50.810;0.284;2023-05-07T00:24:46;15.40;99.90
58517;DHT22;44308;50.810;0.284;2023-05-07T00:27:12;15.30;99.90
58517;DHT22;44308;50.810;0.284;2023-05-07T00:29:38;15.30;99.90
58517;DHT22;44308;50.810;0.284;2023-05-07T00:32:04;15.30;99.90
58517;DHT22;44308;50.810;0.284;2023-05-07T00:34:30;15.20;99.90
58517;DHT22;44308;50.810;0.284;2023-05-07T00:36:56;15.10;99.90
58517;DHT22;44308;50.810;0.284;2023-05-07T00:39:21;15.00;99.90
58517;DHT22;44308;50.810;0.284;2023-05-07T00:41:47;14.90;99.90
58517;DHT22;44308;50.810;0.284;2023-05-07T00:44:13;15.00;99.90
58517;DHT22;44308;50.810;0.284;2023-05-07T00:46:40;15.00;99.90
58517;DHT22;44308;50.810;0.284;2023-05-07T00:49:06;14.90;99.90
58517;DHT22;44308;50.810;0.284;2023-05-07T00:51:32;15.00;99.90
58517;DHT22;44308;50.810;0.284;2023-05-07T00:54:00;15.00;99.90
58517;DHT22;44308;50.810;0.284;2023-05-07T00:56:27;15.00;99.90
58517;DHT22;44308;50.810;0.284;2023-05-07T00:58:53;15.00;99.90
58517;DHT22;44308;50.810;0.284;2023-05-07T01:01:19;15.00;99.90
58517;DHT22;44308;50.810;0.284;2023-05-07T01:03:47;15.00;99.90
58517;DHT22;44308;50.810;0.284;2023-05-07T01:06:13;15.10;99.90
58517;DHT22;44308;50.810;0.284;2023-05-07T01:08:42;15.10;99.90
58517;DHT22;44308;50.810;0.284;2023-05-07T01:11:08;15.00;99.90
58517;DHT22;44308;50.810;0.284;2023-05-07T01:13:35;15.10;99.90
58517;DHT22;44308;50.810;0.284;2023-05-07T01:16:02;15.10;99.90
58517;DHT22;44308;50.810;0.284;2023-05-07T01:18:28;15.10;99.90
58517;DHT22;44308;50.810;0.284;2023-05-07T01:20:58;15.10;99.90
58517;DHT22;44308;50.810;0.284;2023-05-07T01:23:25;15.10;99.90
58517;DHT22;44308;50.810;0.284;2023-05-07T01:25:53;15.20;99.90
58517;DHT22;44308;50.810;0.284;2023-05-07T01:28:19;15.10;99.90
58517;DHT22;44308;50.810;0.284;2023-05-07T01:30:48;15.10;99.90
58517;DHT22;44308;50.810;0.284;2023-05-07T01:33:19;15.10;99.90
58517;DHT22;44308;50.810;0.284;2023-05-07T01:35:47;15.10;99.90
58517;DHT22;44308;50.810;0.284;2023-05-07T01:38:14;15.20;99.90
58517;DHT22;44308;50.810;0.284;2023-05-07T01:40:40;15.10;99.90
58517;DHT22;44308;50.810;0.284;2023-05-07T01:43:25;15.10;99.90
58517;DHT22;44308;50.810;0.284;2023-05-07T01:45:52;15.10;99.90
58517;DHT22;44308;50.810;0.284;2023-05-07T01:48:18;15.20;99.90
58517;DHT22;44308;50.810;0.284;2023-05-07T01:50:44;15.20;99.90
58517;DHT22;44308;50.810;0.284;2023-05-07T01:53:15;15.20;99.90
58517;DHT22;44308;50.810;0.284;2023-05-07T01:55:41;15.20;99.90
58517;DHT22;44308;50.810;0.284;2023-05-07T01:58:07;15.20;99.90
58517;DHT22;44308;50.810;0.284;2023-05-07T02:00:33;15.20;99.90
58517;DHT22;44308;50.810;0.284;2023-05-07T02:02:58;15.20;99.90
58517;DHT22;44308;50.810;0.284;2023-05-07T02:05:24;15.20;99.90
58517;DHT22;44308;50.810;0.284;2023-05-07T02:07:50;15.20;99.90
58517;DHT22;44308;50.810;0.284;2023-05-07T02:10:15;15.10;99.90
58517;DHT22;44308;50.810;0.284;2023-05-07T02:12:45;15.20;99.90
58517;DHT22;44308;50.810;0.284;2023-05-07T02:15:11;15.20;99.90
58517;DHT22;44308;50.810;0.284;2023-05-07T02:17:39;15.30;99.90
58517;DHT22;44308;50.810;0.284;2023-05-07T02:20:23;15.20;99.90
58517;DHT22;44308;50.810;0.284;2023-05-07T02:22:50;15.20;99.90
58517;DHT22;44308;50.810;0.284;2023-05-07T02:25:15;15.20;99.90
58517;DHT22;44308;50.810;0.284;2023-05-07T02:27:41;15.20;99.90
58517;DHT22;44308;50.810;0.284;2023-05-07T02:30:07;15.20;99.90
58517;DHT22;44308;50.810;0.284;2023-05-07T02:32:33;15.20;99.90
58517;DHT22;44308;50.810;0.284;2023-05-07T02:34:59;15.20;99.90
58517;DHT22;44308;50.810;0.284;2023-05-07T02:37:25;15.30;99.90
58517;DHT22;44308;50.810;0.284;2023-05-07T02:39:50;15.20;99.90
58517;DHT22;44308;50.810;0.284;2023-05-07T02:42:16;15.20;99.90
58517;DHT22;44308;50.810;0.284;2023-05-07T02:44:41;15.10;99.90
58517;DHT22;44308;50.810;0.284;2023-05-07T02:47:07;15.10;99.90
58517;DHT22;44308;50.810;0.284;2023-05-07T02:49:34;15.00;99.90
58517;DHT22;44308;50.810;0.284;2023-05-07T02:51:59;14.90;99.90
58517;DHT22;44308;50.810;0.284;2023-05-07T02:54:44;14.90;99.90
58517;DHT22;44308;50.810;0.284;2023-05-07T02:57:10;14.80;99.90
58517;DHT22;44308;50.810;0.284;2023-05-07T02:59:35;14.80;99.90
58517;DHT22;44308;50.810;0.284;2023-05-07T03:02:01;14.90;99.90
58517;DHT22;44308;50.810;0.284;2023-05-07T03:04:27;14.80;99.90
58517;DHT22;44308;50.810;0.284;2023-05-07T03:06:53;14.80;99.90
58517;DHT22;44308;50.810;0.284;2023-05-07T03:09:18;14.80;99.90
58517;DHT22;44308;50.810;0.284;2023-05-07T03:11:44;14.70;99.90
58517;DHT22;44308;50.810;0.284;2023-05-07T03:14:11;14.70;99.90
58517;DHT22;44308;50.810;0.284;2023-05-07T03:16:38;14.70;99.90
58517;DHT22;44308;50.810;0.284;2023-05-07T03:19:03;14.70;99.90
58517;DHT22;44308;50.810;0.284;2023-05-07T03:21:30;14.70;99.90
58517;DHT22;44308;50.810;0.284;2023-05-07T03:23:56;14.70;99.90
58517;DHT22;44308;50.810;0.284;2023-05-07T03:26:22;14.70;99.90
58517;DHT22;44308;50.810;0.284;2023-05-07T03:28:47;14.60;99.90
58517;DHT22;44308;50.810;0.284;2023-05-07T03:31:13;14.70;99.90
58517;DHT22;44308;50.810;0.284;2023-05-07T03:33:59;14.60;99.90
58517;DHT22;44308;50.810;0.284;2023-05-07T03:36:24;14.60;99.90
58517;DHT22;44308;50.810;0.284;2023-05-07T03:38:52;14.60;99.90
58517;DHT22;44308;50.810;0.284;2023-05-07T03:41:17;14.50;99.90
58517;DHT22;44308;50.810;0.284;2023-05-07T03:43:43;14.40;99.90
58517;DHT22;44308;50.810;0.284;2023-05-07T03:46:09;14.40;99.90
58517;DHT22;44308;50.810;0.284;2023-05-07T03:48:35;14.20;99.90
58517;DHT22;44308;50.810;0.284;2023-05-07T03:51:00;14.20;99.90
58517;DHT22;44308;50.810;0.284;2023-05-07T03:53:26;14.20;99.90
58517;DHT22;44308;50.810;0.284;2023-05-07T03:55:52;14.00;99.90
58517;DHT22;44308;50.810;0.284;2023-05-07T03:58:18;14.00;99.90
58517;DHT22;44308;50.810;0.284;2023-05-07T04:00:43;14.00;99.90
58517;DHT22;44308;50.810;0.284;2023-05-07T04:03:10;14.00;99.90
58517;DHT22;44308;50.810;0.284;2023-05-07T04:05:36;14.00;99.90
58517;DHT22;44308;50.810;0.284;2023-05-07T04:08:01;14.00;99.90
58517;DHT22;44308;50.810;0.284;2023-05-07T04:10:29;14.00;99.90
58517;DHT22;44308;50.810;0.284;2023-05-07T04:12:57;14.00;99.90
58517;DHT22;44308;50.810;0.284;2023-05-07T04:15:23;14.10;99.90
58517;DHT22;44308;50.810;0.284;2023-05-07T04:17:49;14.10;99.90
58517;DHT22;44308;50.810;0.284;2023-05-07T04:20:16;14.10;99.90
58517;DHT22;44308;50.810;0.284;2023-05-07T04:22:43;14.10;99.90
58517;DHT22;44308;50.810;0.284;2023-05-07T04:25:09;14.10;99.90
58517;DHT22;44308;50.810;0.284;2023-05-07T04:27:35;14.10;99.90
58517;DHT22;44308;50.810;0.284;2023-05-07T04:30:02;14.10;99.90
58517;DHT22;44308;50.810;0.284;2023-05-07T04:32:46;14.10;99.90
58517;DHT22;44308;50.810;0.284;2023-05-07T04:35:13;14.10;99.90
58517;DHT22;44308;50.810;0.284;2023-05-07T04:37:39;14.10;99.90
58517;DHT22;44308;50.810;0.284;2023-05-07T04:40:06;14.20;99.90
58517;DHT22;44308;50.810;0.284;2023-05-07T04:42:33;14.20;99.90
58517;DHT22;44308;50.810;0.284;2023-05-07T04:44:58;14.20;99.90
58517;DHT22;44308;50.810;0.284;2023-05-07T04:47:24;14.20;99.90
58517;DHT22;44308;50.810;0.284;2023-05-07T04:49:50;14.10;99.90
58517;DHT22;44308;50.810;0.284;2023-05-07T04:52:15;14.20;99.90
58517;DHT22;44308;50.810;0.284;2023-05-07T04:54:42;14.20;99.90
58517;DHT22;44308;50.810;0.284;2023-05-07T04:57:07;14.10;99.90
58517;DHT22;44308;50.810;0.284;2023-05-07T04:59:33;14.10;99.90
58517;DHT22;44308;50.810;0.284;2023-05-07T05:01:59;14.20;99.90
58517;DHT22;44308;50.810;0.284;2023-05-07T05:07:30;14.20;99.90
58517;DHT22;44308;50.810;0.284;2023-05-07T05:09:56;14.10;99.90
58517;DHT22;44308;50.810;0.284;2023-05-07T05:12:24;14.10;99.90
58517;DHT22;44308;50.810;0.284;2023-05-07T05:14:50;14.00;99.90
58517;DHT22;44308;50.810;0.284;2023-05-07T05:17:15;14.00;99.90
58517;DHT22;44308;50.810;0.284;2023-05-07T05:19:41;14.10;99.90
58517;DHT22;44308;50.810;0.284;2023-05-07T05:22:07;14.10;99.90
58517;DHT22;44308;50.810;0.284;2023-05-07T05:24:51;14.10;99.90
58517;DHT22;44308;50.810;0.284;2023-05-07T05:27:17;14.20;99.90
58517;DHT22;44308;50.810;0.284;2023-05-07T05:29:42;14.20;99.90
58517;DHT22;44308;50.810;0.284;2023-05-07T05:32:08;14.20;99.90
58517;DHT22;44308;50.810;0.284;2023-05-07T05:34:34;14.10;99.90
58517;DHT22;44308;50.810;0.284;2023-05-07T05:37:00;14.10;99.90
58517;DHT22;44308;50.810;0.284;2023-05-07T05:39:25;14.10;99.90
58517;DHT22;44308;50.810;0.284;2023-05-07T05:41:51;14.10;99.90
58517;DHT22;44308;50.810;0.284;2023-05-07T05:44:18;14.10;99.90
58517;DHT22;44308;50.810;0.284;2023-05-07T05:46:43;14.20;99.90
58517;DHT22;44308;50.810;0.284;2023-05-07T05:49:09;14.20;99.90
58517;DHT22;44308;50.810;0.284;2023-05-07T05:51:35;14.20;99.90
58517;DHT22;44308;50.810;0.284;2023-05-07T05:54:02;14.30;99.90
58517;DHT22;44308;50.810;0.284;2023-05-07T05:56:28;14.40;99.90
58517;DHT22;44308;50.810;0.284;2023-05-07T05:58:54;14.50;99.90
58517;DHT22;44308;50.810;0.284;2023-05-07T06:01:19;14.60;99.90
58517;DHT22;44308;50.810;0.284;2023-05-07T06:03:46;14.70;99.90
58517;DHT22;44308;50.810;0.284;2023-05-07T06:06:12;14.70;99.90
58517;DHT22;44308;50.810;0.284;2023-05-07T06:08:39;14.70;99.90
58517;DHT22;44308;50.810;0.284;2023-05-07T06:11:05;14.60;99.90
58517;DHT22;44308;50.810;0.284;2023-05-07T06:17:11;14.60;99.90
58517;DHT22;44308;50.810;0.284;2023-05-07T06:19:37;14.70;99.90
58517;DHT22;44308;50.810;0.284;2023-05-07T06:22:03;14.80;99.90
58517;DHT22;44308;50.810;0.284;2023-05-07T06:24:29;14.90;99.90
58517;DHT22;44308;50.810;0.284;2023-05-07T06:26:55;14.70;99.90
58517;DHT22;44308;50.810;0.284;2023-05-07T06:29:20;14.80;99.90
58517;DHT22;44308;50.810;0.284;2023-05-07T06:31:46;14.60;99.90
58517;DHT22;44308;50.810;0.284;2023-05-07T06:34:12;14.60;99.90
58517;DHT22;44308;50.810;0.284;2023-05-07T06:36:41;14.60;99.90
58517;DHT22;44308;50.810;0.284;2023-05-07T06:39:06;14.50;99.90
58517;DHT22;44308;50.810;0.284;2023-05-07T06:41:32;14.50;99.90
58517;DHT22;44308;50.810;0.284;2023-05-07T06:43:58;14.60;99.90
58517;DHT22;44308;50.810;0.284;2023-05-07T06:46:23;14.70;99.90
58517;DHT22;44308;50.810;0.284;2023-05-07T06:48:49;14.60;99.90
58517;DHT22;44308;50.810;0.284;2023-05-07T06:51:14;14.60;99.90
58517;DHT22;44308;50.810;0.284;2023-05-07T06:53:41;14.60;99.90
58517;DHT22;44308;50.810;0.284;2023-05-07T06:56:07;14.50;99.90
58517;DHT22;44308;50.810;0.284;2023-05-07T06:58:32;14.60;99.90
58517;DHT22;44308;50.810;0.284;2023-05-07T07:00:58;14.70;99.90
58517;DHT22;44308;50.810;0.284;2023-05-07T07:03:25;14.70;99.90
58517;DHT22;44308;50.810;0.284;2023-05-07T07:05:54;14.80;99.90
58517;DHT22;44308;50.810;0.284;2023-05-07T07:08:21;14.90;99.90
58517;DHT22;44308;50.810;0.284;2023-05-07T07:10:47;14.90;99.90
58517;DHT22;44308;50.810;0.284;2023-05-07T07:13:15;15.10;99.90
58517;DHT22;44308;50.810;0.284;2023-05-07T07:15:41;15.00;99.90
58517;DHT22;44308;50.810;0.284;2023-05-07T07:18:07;15.00;99.90
58517;DHT22;44308;50.810;0.284;2023-05-07T07:20:32;15.00;99.90
58517;DHT22;44308;50.810;0.284;2023-05-07T07:22:58;15.00;99.90
58517;DHT22;44308;50.810;0.284;2023-05-07T07:25:25;15.10;99.90
58517;DHT22;44308;50.810;0.284;2023-05-07T07:27:50;15.20;99.90
58517;DHT22;44308;50.810;0.284;2023-05-07T07:30:16;15.30;99.90
58517;DHT22;44308;50.810;0.284;2023-05-07T07:33:01;15.40;99.90
58517;DHT22;44308;50.810;0.284;2023-05-07T07:35:32;15.60;99.90
58517;DHT22;44308;50.810;0.284;2023-05-07T07:37:58;15.50;99.90
58517;DHT22;44308;50.810;0.284;2023-05-07T07:40:24;15.60;99.90
58517;DHT22;44308;50.810;0.284;2023-05-07T07:42:51;15.60;99.90
58517;DHT22;44308;50.810;0.284;2023-05-07T07:45:17;15.80;99.90
58517;DHT22;44308;50.810;0.284;2023-05-07T07:47:42;15.80;99.90
58517;DHT22;44308;50.810;0.284;2023-05-07T07:50:09;15.80;99.90
58517;DHT22;44308;50.810;0.284;2023-05-07T07:52:36;15.80;99.90
58517;DHT22;44308;50.810;0.284;2023-05-07T07:55:02;15.80;99.90
58517;DHT22;44308;50.810;0.284;2023-05-07T07:57:28;15.80;99.90
58517;DHT22;44308;50.810;0.284;2023-05-07T07:59:54;15.70;99.90
58517;DHT22;44308;50.810;0.284;2023-05-07T08:02:21;15.80;99.90
58517;DHT22;44308;50.810;0.284;2023-05-07T08:04:47;15.70;99.90
58517;DHT22;44308;50.810;0.284;2023-05-07T08:07:12;15.70;99.90
58517;DHT22;44308;50.810;0.284;2023-05-07T08:09:38;15.70;99.90
58517;DHT22;44308;50.810;0.284;2023-05-07T08:12:05;15.80;99.90
58517;DHT22;44308;50.810;0.284;2023-05-07T08:14:34;15.70;99.90
58517;DHT22;44308;50.810;0.284;2023-05-07T08:17:02;15.70;99.90
58517;DHT22;44308;50.810;0.284;2023-05-07T08:19:28;15.70;99.90
58517;DHT22;44308;50.810;0.284;2023-05-07T08:21:54;15.80;99.90
58517;DHT22;44308;50.810;0.284;2023-05-07T08:24:21;15.90;99.90
58517;DHT22;44308;50.810;0.284;2023-05-07T08:26:46;15.70;99.90
58517;DHT22;44308;50.810;0.284;2023-05-07T08:29:12;15.60;99.90
58517;DHT22;44308;50.810;0.284;2023-05-07T08:31:38;15.50;99.90
58517;DHT22;44308;50.810;0.284;2023-05-07T08:34:07;15.60;99.90
58517;DHT22;44308;50.810;0.284;2023-05-07T08:36:33;15.60;99.90
58517;DHT22;44308;50.810;0.284;2023-05-07T08:38:59;15.60;99.90
58517;DHT22;44308;50.810;0.284;2023-05-07T08:41:25;15.50;99.90
58517;DHT22;44308;50.810;0.284;2023-05-07T08:43:52;15.60;99.90
58517;DHT22;44308;50.810;0.284;2023-05-07T08:46:20;15.50;99.90
58517;DHT22;44308;50.810;0.284;2023-05-07T08:48:49;15.50;99.90
58517;DHT22;44308;50.810;0.284;2023-05-07T08:51:18;15.50;99.90
58517;DHT22;44308;50.810;0.284;2023-05-07T08:53:46;15.30;99.90
58517;DHT22;44308;50.810;0.284;2023-05-07T08:56:14;15.40;99.90
58517;DHT22;44308;50.810;0.284;2023-05-07T08:58:41;15.50;99.90
58517;DHT22;44308;50.810;0.284;2023-05-07T09:01:08;15.50;99.90
58517;DHT22;44308;50.810;0.284;2023-05-07T09:03:37;15.60;99.90
58517;DHT22;44308;50.810;0.284;2023-05-07T09:06:03;15.70;99.90
58517;DHT22;44308;50.810;0.284;2023-05-07T09:08:32;15.70;99.90
58517;DHT22;44308;50.810;0.284;2023-05-07T09:10:57;15.80;99.90
58517;DHT22;44308;50.810;0.284;2023-05-07T09:13:23;16.00;99.90
58517;DHT22;44308;50.810;0.284;2023-05-07T09:15:49;16.10;99.90
58517;DHT22;44308;50.810;0.284;2023-05-07T09:18:14;16.20;99.90
58517;DHT22;44308;50.810;0.284;2023-05-07T09:20:40;16.40;99.90
58517;DHT22;44308;50.810;0.284;2023-05-07T09:23:07;16.40;99.90
58517;DHT22;44308;50.810;0.284;2023-05-07T09:25:34;16.40;99.90
58517;DHT22;44308;50.810;0.284;2023-05-07T09:28:01;16.70;99.90
58517;DHT22;44308;50.810;0.284;2023-05-07T09:30:29;16.70;99.90
58517;DHT22;44308;50.810;0.284;2023-05-07T09:32:57;16.60;99.90
58517;DHT22;44308;50.810;0.284;2023-05-07T09:35:23;16.80;99.90
58517;DHT22;44308;50.810;0.284;2023-05-07T09:37:59;16.70;99.90
58517;DHT22;44308;50.810;0.284;2023-05-07T09:40:27;16.80;99.90
58517;DHT22;44308;50.810;0.284;2023-05-07T09:42:54;16.70;99.90
58517;DHT22;44308;50.810;0.284;2023-05-07T09:45:27;16.60;99.90
58517;DHT22;44308;50.810;0.284;2023-05-07T09:47:57;16.80;99.90
58517;DHT22;44308;50.810;0.284;2023-05-07T09:50:32;16.80;99.90
58517;DHT22;44308;50.810;0.284;2023-05-07T09:53:01;16.80;99.90
58517;DHT22;44308;50.810;0.284;2023-05-07T09:55:28;16.80;99.90
58517;DHT22;44308;50.810;0.284;2023-05-07T09:57:55;16.90;99.90
58517;DHT22;44308;50.810;0.284;2023-05-07T10:00:22;17.00;99.90
58517;DHT22;44308;50.810;0.284;2023-05-07T10:02:49;16.80;99.90
58517;DHT22;44308;50.810;0.284;2023-05-07T10:05:18;16.80;99.90
58517;DHT22;44308;50.810;0.284;2023-05-07T10:07:44;16.90;99.90
58517;DHT22;44308;50.810;0.284;2023-05-07T10:10:10;17.10;99.90
58517;DHT22;44308;50.810;0.284;2023-05-07T10:12:36;17.20;99.90
58517;DHT22;44308;50.810;0.284;2023-05-07T10:15:09;17.30;99.90
58517;DHT22;44308;50.810;0.284;2023-05-07T10:17:39;17.40;99.90
58517;DHT22;44308;50.810;0.284;2023-05-07T10:20:06;17.50;99.90
58517;DHT22;44308;50.810;0.284;2023-05-07T10:22:38;17.40;99.90
58517;DHT22;44308;50.810;0.284;2023-05-07T10:25:09;17.60;99.90
58517;DHT22;44308;50.810;0.284;2023-05-07T10:27:38;17.60;99.90
58517;DHT22;44308;50.810;0.284;2023-05-07T10:32:49;17.80;99.90
58517;DHT22;44308;50.810;0.284;2023-05-07T10:35:29;17.90;99.90
58517;DHT22;44308;50.810;0.284;2023-05-07T10:37:57;18.10;99.90
58517;DHT22;44308;50.810;0.284;2023-05-07T10:40:23;18.00;99.90
58517;DHT22;44308;50.810;0.284;2023-05-07T10:43:00;17.90;99.90
58517;DHT22;44308;50.810;0.284;2023-05-07T10:45:27;17.80;99.90
58517;DHT22;44308;50.810;0.284;2023-05-07T10:50:38;18.00;99.90
58517;DHT22;44308;50.810;0.284;2023-05-07T10:56:24;18.30;99.90
58517;DHT22;44308;50.810;0.284;2023-05-07T10:58:37;18.50;99.90
58517;DHT22;44308;50.810;0.284;2023-05-07T11:01:03;18.60;99.90
58517;DHT22;44308;50.810;0.284;2023-05-07T11:03:29;18.80;99.90
58517;DHT22;44308;50.810;0.284;2023-05-07T11:06:15;18.80;99.90
58517;DHT22;44308;50.810;0.284;2023-05-07T11:09:01;18.60;99.90
58517;DHT22;44308;50.810;0.284;2023-05-07T11:11:49;18.80;99.90
58517;DHT22;44308;50.810;0.284;2023-05-07T11:14:43;18.90;99.90
58517;DHT22;44308;50.810;0.284;2023-05-07T11:17:11;19.10;99.90
58517;DHT22;44308;50.810;0.284;2023-05-07T11:19:53;19.00;99.90
58517;DHT22;44308;50.810;0.284;2023-05-07T11:25:01;18.60;99.90
58517;DHT22;44308;50.810;0.284;2023-05-07T11:27:27;18.50;99.90
58517;DHT22;44308;50.810;0.284;2023-05-07T11:29:53;18.50;99.90
58517;DHT22;44308;50.810;0.284;2023-05-07T11:32:29;18.40;99.90
58517;DHT22;44308;50.810;0.284;2023-05-07T11:34:56;18.20;99.90
58517;DHT22;44308;50.810;0.284;2023-05-07T11:37:23;18.10;99.90
58517;DHT22;44308;50.810;0.284;2023-05-07T11:39:49;18.10;99.90
58517;DHT22;44308;50.810;0.284;2023-05-07T11:42:32;18.20;99.90
58517;DHT22;44308;50.810;0.284;2023-05-07T11:44:59;18.40;99.90
58517;DHT22;44308;50.810;0.284;2023-05-07T11:47:24;18.60;99.90
58517;DHT22;44308;50.810;0.284;2023-05-07T11:49:54;18.70;99.90
58517;DHT22;44308;50.810;0.284;2023-05-07T11:52:22;18.80;99.90
58517;DHT22;44308;50.810;0.284;2023-05-07T11:54:56;18.80;99.90
58517;DHT22;44308;50.810;0.284;2023-05-07T11:57:23;18.80;99.90
58517;DHT22;44308;50.810;0.284;2023-05-07T11:59:59;18.80;99.90
58517;DHT22;44308;50.810;0.284;2023-05-07T12:02:27;18.90;99.90
58517;DHT22;44308;50.810;0.284;2023-05-07T12:04:54;19.30;99.90
58517;DHT22;44308;50.810;0.284;2023-05-07T12:07:20;19.30;99.90
58517;DHT22;44308;50.810;0.284;2023-05-07T12:09:47;19.20;99.90
58517;DHT22;44308;50.810;0.284;2023-05-07T12:12:13;19.20;99.90
58517;DHT22;44308;50.810;0.284;2023-05-07T12:14:44;19.20;99.90
58517;DHT22;44308;50.810;0.284;2023-05-07T12:17:11;19.30;99.90
58517;DHT22;44308;50.810;0.284;2023-05-07T12:19:39;19.10;99.90
58517;DHT22;44308;50.810;0.284;2023-05-07T12:22:07;19.20;99.90
58517;DHT22;44308;50.810;0.284;2023-05-07T12:24:55;19.30;99.90
58517;DHT22;44308;50.810;0.284;2023-05-07T12:27:21;19.30;99.90
58517;DHT22;44308;50.810;0.284;2023-05-07T12:29:47;19.20;99.90
58517;DHT22;44308;50.810;0.284;2023-05-07T12:32:19;19.30;99.90
58517;DHT22;44308;50.810;0.284;2023-05-07T12:34:45;19.30;99.90
58517;DHT22;44308;50.810;0.284;2023-05-07T12:37:11;19.20;99.90
58517;DHT22;44308;50.810;0.284;2023-05-07T12:39:43;19.10;99.90
58517;DHT22;44308;50.810;0.284;2023-05-07T12:42:15;19.00;99.90
58517;DHT22;44308;50.810;0.284;2023-05-07T12:44:41;19.10;99.90
58517;DHT22;44308;50.810;0.284;2023-05-07T12:47:10;19.10;99.90
58517;DHT22;44308;50.810;0.284;2023-05-07T12:49:36;19.30;99.90
58517;DHT22;44308;50.810;0.284;2023-05-07T12:52:06;19.40;99.90
58517;DHT22;44308;50.810;0.284;2023-05-07T12:54:37;19.60;99.90
58517;DHT22;44308;50.810;0.284;2023-05-07T12:57:10;19.60;99.90
58517;DHT22;44308;50.810;0.284;2023-05-07T12:59:38;19.60;99.90
58517;DHT22;44308;50.810;0.284;2023-05-07T13:02:04;19.80;99.90
58517;DHT22;44308;50.810;0.284;2023-05-07T13:04:33;19.80;99.90
58517;DHT22;44308;50.810;0.284;2023-05-07T13:06:59;19.80;99.90
58517;DHT22;44308;50.810;0.284;2023-05-07T13:09:25;19.80;99.90
58517;DHT22;44308;50.810;0.284;2023-05-07T13:11:51;19.90;99.90
58517;DHT22;44308;50.810;0.284;2023-05-07T13:14:18;19.90;99.90
58517;DHT22;44308;50.810;0.284;2023-05-07T13:16:46;20.00;99.90
58517;DHT22;44308;50.810;0.284;2023-05-07T13:19:12;19.90;99.90
58517;DHT22;44308;50.810;0.284;2023-05-07T13:21:38;19.80;99.90
58517;DHT22;44308;50.810;0.284;2023-05-07T13:24:08;19.90;99.90
58517;DHT22;44308;50.810;0.284;2023-05-07T13:26:33;19.90;99.90
58517;DHT22;44308;50.810;0.284;2023-05-07T13:28:59;19.90;99.90
58517;DHT22;44308;50.810;0.284;2023-05-07T13:31:25;20.10;99.90
58517;DHT22;44308;50.810;0.284;2023-05-07T13:33:51;20.20;99.90
58517;DHT22;44308;50.810;0.284;2023-05-07T13:36:18;20.30;99.90
58517;DHT22;44308;50.810;0.284;2023-05-07T13:38:43;20.40;99.90
58517;DHT22;44308;50.810;0.284;2023-05-07T13:41:09;20.20;99.90
58517;DHT22;44308;50.810;0.284;2023-05-07T13:43:35;20.10;99.90
58517;DHT22;44308;50.810;0.284;2023-05-07T13:46:01;19.90;99.90
58517;DHT22;44308;50.810;0.284;2023-05-07T13:48:26;19.80;99.90
58517;DHT22;44308;50.810;0.284;2023-05-07T13:50:53;19.80;99.90
58517;DHT22;44308;50.810;0.284;2023-05-07T13:53:19;19.80;99.90
58517;DHT22;44308;50.810;0.284;2023-05-07T13:55:45;19.80;99.90
58517;DHT22;44308;50.810;0.284;2023-05-07T13:58:11;19.90;99.90
58517;DHT22;44308;50.810;0.284;2023-05-07T14:00:37;20.00;99.90
58517;DHT22;44308;50.810;0.284;2023-05-07T14:03:05;20.00;99.90
58517;DHT22;44308;50.810;0.284;2023-05-07T14:05:30;19.90;99.90
58517;DHT22;44308;50.810;0.284;2023-05-07T14:07:59;19.90;99.90
58517;DHT22;44308;50.810;0.284;2023-05-07T14:10:25;19.80;99.90
58517;DHT22;44308;50.810;0.284;2023-05-07T14:12:51;19.60;99.90
58517;DHT22;44308;50.810;0.284;2023-05-07T14:15:18;19.50;99.90
58517;DHT22;44308;50.810;0.284;2023-05-07T14:17:43;19.60;99.90
58517;DHT22;44308;50.810;0.284;2023-05-07T14:20:10;19.50;99.90
58517;DHT22;44308;50.810;0.284;2023-05-07T14:22:36;19.30;99.90
58517;DHT22;44308;50.810;0.284;2023-05-07T14:25:02;19.10;99.90
58517;DHT22;44308;50.810;0.284;2023-05-07T14:27:28;19.10;99.90
58517;DHT22;44308;50.810;0.284;2023-05-07T14:29:54;19.30;99.90
58517;DHT22;44308;50.810;0.284;2023-05-07T14:32:20;19.30;99.90
58517;DHT22;44308;50.810;0.284;2023-05-07T14:34:46;19.30;99.90
58517;DHT22;44308;50.810;0.284;2023-05-07T14:37:12;19.30;99.90
58517;DHT22;44308;50.810;0.284;2023-05-07T14:39:38;19.50;99.90
58517;DHT22;44308;50.810;0.284;2023-05-07T14:42:03;19.50;99.90
58517;DHT22;44308;50.810;0.284;2023-05-07T14:44:29;19.40;99.90
58517;DHT22;44308;50.810;0.284;2023-05-07T14:46:56;19.50;99.90
58517;DHT22;44308;50.810;0.284;2023-05-07T14:49:22;19.60;99.90
58517;DHT22;44308;50.810;0.284;2023-05-07T14:51:48;19.60;99.90
58517;DHT22;44308;50.810;0.284;2023-05-07T14:54:15;19.80;99.90
58517;DHT22;44308;50.810;0.284;2023-05-07T14:56:41;19.90;99.90
58517;DHT22;44308;50.810;0.284;2023-05-07T14:59:07;20.10;99.90
58517;DHT22;44308;50.810;0.284;2023-05-07T15:01:34;20.10;99.90
58517;DHT22;44308;50.810;0.284;2023-05-07T15:04:04;20.40;99.90
58517;DHT22;44308;50.810;0.284;2023-05-07T15:06:31;20.20;99.90
58517;DHT22;44308;50.810;0.284;2023-05-07T15:08:57;20.50;99.90
58517;DHT22;44308;50.810;0.284;2023-05-07T15:11:23;20.80;99.90
58517;DHT22;44308;50.810;0.284;2023-05-07T15:14:09;20.70;99.90
58517;DHT22;44308;50.810;0.284;2023-05-07T15:16:35;20.90;99.90
58517;DHT22;44308;50.810;0.284;2023-05-07T15:19:00;21.10;99.90
58517;DHT22;44308;50.810;0.284;2023-05-07T15:21:26;21.20;99.90
58517;DHT22;44308;50.810;0.284;2023-05-07T15:23:52;21.30;99.90
58517;DHT22;44308;50.810;0.284;2023-05-07T15:26:18;21.50;99.90
58517;DHT22;44308;50.810;0.284;2023-05-07T15:28:49;21.40;99.90
58517;DHT22;44308;50.810;0.284;2023-05-07T15:31:19;21.50;99.90
58517;DHT22;44308;50.810;0.284;2023-05-07T15:33:47;21.60;99.90
58517;DHT22;44308;50.810;0.284;2023-05-07T15:36:13;21.70;99.90
58517;DHT22;44308;50.810;0.284;2023-05-07T15:38:39;21.70;99.90
58517;DHT22;44308;50.810;0.284;2023-05-07T15:41:05;21.70;99.90
58517;DHT22;44308;50.810;0.284;2023-05-07T15:43:51;21.60;99.90
58517;DHT22;44308;50.810;0.284;2023-05-07T15:46:19;21.60;99.90
58517;DHT22;44308;50.810;0.284;2023-05-07T15:48:45;21.70;99.90